Time;durP1;ratioP1;P1;durP2;ratioP2;P2;SDS_P1;SDS_P2;PMS_P1;PMS_P2;Temp;Humidity;BMP_temperature;BMP_pressure;BME280_temperature;BME280_humidity;BME280_pressure;Samples;Min_cycle;Max_cycle;Signal;HPM_P1;HPM_P2
2024/02/13 00:00:10;;;;;;;34.67;22.60;;;4.40;94.70;;;;;;5017084;28;20095;-89
2024/02/13 00:02:37;;;;;;;28.23;22.30;;;4.40;94.80;;;;;;5017099;28;20201;-89
2024/02/13 00:05:05;;;;;;;28.93;21.47;;;4.40;94.80;;;;;;5034680;28;20187;-89
2024/02/13 00:07:30;;;;;;;24.93;21.63;;;4.40;94.80;;;;;;5034651;28;20403;-90
2024/02/13 00:09:56;;;;;;;24.33;21.77;;;4.50;94.90;;;;;;5017303;28;20196;-90
2024/02/13 00:12:21;;;;;;;29.97;22.93;;;4.50;94.90;;;;;;5018025;28;20188;-88
2024/02/13 00:14:48;;;;;;;24.97;21.40;;;4.40;94.80;;;;;;5034592;28;20640;-88
2024/02/13 00:17:15;;;;;;;24.47;22.03;;;4.40;94.80;;;;;;5034400;28;20180;-89
2024/02/13 00:19:42;;;;;;;28.07;23.53;;;4.30;94.80;;;;;;5016910;28;20188;-88
2024/02/13 00:22:11;;;;;;;31.47;22.60;;;4.20;94.70;;;;;;5017604;28;20235;-88
2024/02/13 00:24:40;;;;;;;28.40;23.17;;;4.10;94.70;;;;;;5016855;28;20242;-89
2024/02/13 00:27:06;;;;;;;25.67;22.63;;;4.10;94.80;;;;;;5016691;28;20211;-88
2024/02/13 00:29:32;;;;;;;24.47;21.87;;;4.00;94.80;;;;;;5016783;28;20211;-89
2024/02/13 00:31:57;;;;;;;26.00;21.70;;;3.90;94.80;;;;;;5016565;28;20274;-87
2024/02/13 00:34:23;;;;;;;24.50;21.80;;;3.80;94.90;;;;;;5016550;28;20560;-90
2024/02/13 00:36:50;;;;;;;23.33;21.00;;;3.90;94.90;;;;;;5016602;28;20206;-89
2024/02/13 00:39:16;;;;;;;28.20;21.17;;;3.80;94.90;;;;;;5016549;28;20687;-89
2024/02/13 00:41:42;;;;;;;29.77;22.53;;;3.80;94.90;;;;;;5034061;28;20199;-89
2024/02/13 00:44:07;;;;;;;24.27;21.77;;;3.80;95.00;;;;;;5016458;28;20191;-88
2024/02/13 00:46:34;;;;;;;31.67;21.00;;;3.70;95.00;;;;;;5034209;28;20634;-89
2024/02/13 00:49:01;;;;;;;26.07;23.33;;;3.70;95.00;;;;;;5016551;28;20200;-88
2024/02/13 00:51:26;;;;;;;24.13;21.67;;;3.70;95.00;;;;;;5016348;28;20183;-88
2024/02/13 00:53:52;;;;;;;23.83;21.40;;;3.70;95.10;;;;;;5016460;28;20188;-88
2024/02/13 00:56:18;;;;;;;28.33;20.47;;;3.70;95.10;;;;;;5034133;28;20176;-87
2024/02/13 00:58:46;;;;;;;22.47;13.50;;;3.80;95.10;;;;;;5016069;28;20650;-87
2024/02/13 01:01:12;;;;;;;21.20;14.40;;;3.70;95.10;;;;;;5033722;28;20177;-88
2024/02/13 01:03:38;;;;;;;21.57;13.83;;;3.70;95.20;;;;;;5016270;28;20241;-90
2024/02/13 01:06:06;;;;;;;31.10;14.20;;;3.70;95.10;;;;;;5033839;28;20632;-89
2024/02/13 01:08:33;;;;;;;20.53;13.73;;;3.70;95.20;;;;;;5015929;28;20196;-88
2024/02/13 01:10:58;;;;;;;20.00;14.23;;;3.70;95.20;;;;;;5015968;28;20262;-89
2024/02/13 01:13:24;;;;;;;23.17;14.30;;;3.70;95.20;;;;;;5018287;28;20226;-93
2024/02/13 01:15:49;;;;;;;21.40;14.50;;;3.70;95.20;;;;;;5020166;28;20187;-92
2024/02/13 01:18:15;;;;;;;25.87;14.97;;;3.70;95.20;;;;;;5015966;28;20196;-89
2024/02/13 01:20:41;;;;;;;16.50;14.80;;;3.70;95.20;;;;;;5033666;28;20670;-89
2024/02/13 01:23:06;;;;;;;20.03;14.73;;;3.70;95.20;;;;;;5015626;28;20195;-89
2024/02/13 01:25:32;;;;;;;29.57;15.20;;;3.80;95.30;;;;;;5015983;28;20539;-90
2024/02/13 01:27:58;;;;;;;24.60;14.20;;;3.70;95.30;;;;;;5033711;28;20309;-90
2024/02/13 01:30:23;;;;;;;23.57;13.87;;;3.80;95.30;;;;;;5015785;28;20180;-89
2024/02/13 01:32:49;;;;;;;22.80;13.83;;;3.80;95.30;;;;;;5015699;28;20206;-89
2024/02/13 01:35:16;;;;;;;23.50;14.00;;;3.80;95.30;;;;;;5015433;28;20220;-89
2024/02/13 01:37:43;;;;;;;21.03;14.73;;;3.90;95.30;;;;;;5015504;28;20202;-89
2024/02/13 01:40:09;;;;;;;;;;;3.80;95.20;;;;;;5015732;28;20591;-89
2024/02/13 01:42:37;;;;;;;;;;;3.80;95.20;;;;;;5015924;28;19968;-89
2024/02/13 01:45:05;;;;;;;22.47;14.23;;;3.80;95.20;;;;;;5015666;28;19905;-89
2024/02/13 01:47:31;;;;;;;27.73;14.67;;;3.80;95.10;;;;;;5015975;28;20255;-89
2024/02/13 01:49:57;;;;;;;16.03;12.50;;;3.80;95.10;;;;;;5015601;28;20605;-89
2024/02/13 01:52:22;;;;;;;28.63;13.73;;;3.90;95.10;;;;;;5015923;28;20180;-89
2024/02/13 01:54:48;;;;;;;22.17;15.07;;;3.90;95.10;;;;;;5015862;28;20190;-89
2024/02/13 01:57:13;;;;;;;18.60;14.20;;;4.00;95.10;;;;;;5033001;28;20176;-88
2024/02/13 01:59:39;;;;;;;25.50;14.13;;;4.00;95.10;;;;;;5033057;28;20181;-88
2024/02/13 02:02:08;;;;;;;25.20;19.73;;;4.00;95.10;;;;;;5017995;28;20236;-88
2024/02/13 02:04:37;;;;;;;24.43;19.10;;;4.00;95.10;;;;;;5037005;28;20192;-88
2024/02/13 02:07:07;;;;;;;22.80;20.43;;;4.00;95.10;;;;;;5019565;28;20191;-89
2024/02/13 02:09:33;;;;;;;24.73;18.90;;;4.10;95.20;;;;;;5020352;28;20231;-88
2024/02/13 02:11:59;;;;;;;28.27;20.03;;;4.10;95.20;;;;;;5019211;28;20188;-89
2024/02/13 02:14:25;;;;;;;24.30;20.03;;;4.10;95.10;;;;;;5019260;28;20184;-88
2024/02/13 02:16:51;;;;;;;29.63;20.33;;;4.20;95.20;;;;;;5036768;28;20181;-89
2024/02/13 02:19:16;;;;;;;25.03;20.53;;;4.10;95.10;;;;;;5019019;28;20196;-89
2024/02/13 02:21:43;;;;;;;24.27;21.40;;;4.20;95.10;;;;;;5018925;28;20579;-90
2024/02/13 02:24:08;;;;;;;29.00;19.43;;;4.20;95.10;;;;;;5018900;28;20644;-89
2024/02/13 02:26:34;;;;;;;23.20;19.47;;;4.30;95.10;;;;;;5019019;28;20173;-89
2024/02/13 02:29:00;;;;;;;22.60;20.23;;;4.20;95.10;;;;;;5018997;28;20672;-89
2024/02/13 02:31:26;;;;;;;21.80;19.17;;;4.30;95.10;;;;;;5018787;28;20183;-89
2024/02/13 02:33:53;;;;;;;28.33;19.90;;;4.30;95.00;;;;;;5036600;28;20168;-90
2024/02/13 02:36:19;;;;;;;22.33;20.10;;;4.30;95.00;;;;;;5018897;28;20728;-89
2024/02/13 02:38:44;;;;;;;22.33;19.43;;;4.30;95.00;;;;;;5018810;28;20192;-89
2024/02/13 02:41:10;;;;;;;25.50;20.10;;;4.20;94.90;;;;;;5036239;28;20169;-88
2024/02/13 02:43:38;;;;;;;22.10;19.57;;;4.20;94.90;;;;;;5036283;28;20173;-89
2024/02/13 02:46:04;;;;;;;24.53;21.00;;;4.20;94.90;;;;;;5018921;28;20182;-89
2024/02/13 02:48:30;;;;;;;22.97;18.67;;;4.20;94.80;;;;;;5036704;28;20569;-88
2024/02/13 02:50:56;;;;;;;25.73;20.03;;;4.20;94.80;;;;;;5036196;28;20169;-89
2024/02/13 02:53:23;;;;;;;28.53;18.93;;;4.20;94.80;;;;;;5018614;28;20172;-88
2024/02/13 02:55:49;;;;;;;26.07;18.87;;;4.30;94.80;;;;;;5018519;28;20565;-89
2024/02/13 02:58:15;;;;;;;24.20;17.57;;;4.30;94.80;;;;;;5018482;28;20202;-89
2024/02/13 03:00:43;;;;;;;22.30;18.00;;;4.30;94.80;;;;;;5018715;28;20188;-90
2024/02/13 03:03:09;;;;;;;29.50;18.20;;;4.30;94.80;;;;;;5018207;28;20223;-89
2024/02/13 03:05:34;;;;;;;21.40;19.23;;;4.40;94.70;;;;;;5018267;28;20551;-89
2024/02/13 03:08:00;;;;;;;22.00;19.70;;;4.40;94.70;;;;;;5018734;28;20189;-89
2024/02/13 03:10:26;;;;;;;25.87;18.60;;;4.40;94.60;;;;;;5036192;28;20582;-90
2024/02/13 03:12:51;;;;;;;21.90;19.43;;;4.30;94.60;;;;;;5017984;28;20176;-89
2024/02/13 03:15:18;;;;;;;21.07;18.83;;;4.30;94.50;;;;;;5018889;28;20180;-89
2024/02/13 03:17:44;;;;;;;21.57;18.33;;;4.30;94.40;;;;;;5017942;28;20192;-89
2024/02/13 03:20:10;;;;;;;20.07;18.17;;;4.30;94.40;;;;;;5035742;28;20172;-89
2024/02/13 03:22:37;;;;;;;21.73;19.50;;;4.30;94.40;;;;;;5035740;28;20241;-89
2024/02/13 03:25:04;;;;;;;21.30;18.37;;;4.30;94.40;;;;;;5017800;28;20667;-88
2024/02/13 03:27:31;;;;;;;21.37;18.87;;;4.30;94.30;;;;;;5018042;28;20668;-89
2024/02/13 03:29:56;;;;;;;20.97;18.83;;;4.20;94.40;;;;;;5035761;28;20519;-88
2024/02/13 03:32:22;;;;;;;22.27;19.53;;;4.20;94.40;;;;;;5017887;28;20187;-88
2024/02/13 03:34:47;;;;;;;23.50;19.07;;;4.20;94.40;;;;;;5018187;28;20183;-89
2024/02/13 03:37:13;;;;;;;27.50;19.63;;;4.20;94.50;;;;;;5017687;28;20543;-88
2024/02/13 03:39:42;;;;;;;27.13;19.30;;;4.10;94.40;;;;;;5017867;28;20276;-89
2024/02/13 03:42:09;;;;;;;26.30;19.13;;;4.10;94.50;;;;;;5017559;28;20603;-89
2024/02/13 03:44:37;;;;;;;20.20;17.83;;;4.10;94.50;;;;;;5017515;28;20171;-89
2024/02/13 03:47:05;;;;;;;25.20;19.13;;;4.10;94.50;;;;;;5017443;28;20189;-89
2024/02/13 03:49:31;;;;;;;21.83;18.60;;;4.10;94.60;;;;;;5017375;28;20361;-89
2024/02/13 03:51:57;;;;;;;24.17;17.80;;;4.20;94.60;;;;;;5017462;28;20644;-89
2024/02/13 03:54:23;;;;;;;20.80;18.70;;;4.10;94.60;;;;;;5017407;28;20277;-88
2024/02/13 03:56:48;;;;;;;18.97;11.93;;;4.20;94.60;;;;;;5035443;28;20175;-89
2024/02/13 03:59:15;;;;;;;18.17;12.27;;;4.20;94.60;;;;;;5017173;28;20200;-89
2024/02/13 04:01:43;;;;;;;23.80;11.90;;;4.10;94.60;;;;;;5017358;28;20239;-89
2024/02/13 04:04:08;;;;;;;19.53;11.20;;;4.20;94.70;;;;;;5016914;28;20562;-89
2024/02/13 04:06:35;;;;;;;23.50;12.53;;;4.20;94.60;;;;;;5035212;28;20169;-90
2024/02/13 04:09:07;;;;;;;15.63;12.40;;;4.20;94.50;;;;;;5034980;28;20191;-90
2024/02/13 04:11:33;;;;;;;20.70;13.30;;;4.20;94.60;;;;;;5017131;28;20225;-87
2024/02/13 04:13:59;;;;;;;17.57;11.70;;;4.20;94.50;;;;;;5016981;28;20175;-88
2024/02/13 04:16:24;;;;;;;16.63;12.37;;;4.20;94.50;;;;;;5017125;28;20177;-89
2024/02/13 04:18:50;;;;;;;18.00;13.03;;;4.20;94.50;;;;;;5017280;28;20218;-89
2024/02/13 04:21:17;;;;;;;19.43;13.10;;;4.20;94.60;;;;;;5016703;28;20246;-90
2024/02/13 04:23:47;;;;;;;18.23;12.70;;;4.20;94.60;;;;;;5016467;28;20183;-90
2024/02/13 04:26:12;;;;;;;19.07;13.30;;;4.20;94.70;;;;;;5000849;28;20168;-88
2024/02/13 04:28:41;;;;;;;19.07;13.23;;;4.20;94.70;;;;;;5016745;28;20207;-88
2024/02/13 04:31:09;;;;;;;14.77;12.73;;;4.30;94.70;;;;;;5016725;28;20234;-90
2024/02/13 04:33:35;;;;;;;18.50;12.43;;;4.20;94.60;;;;;;5017654;28;20263;-89
2024/02/13 04:36:01;;;;;;;20.43;14.00;;;4.20;94.70;;;;;;5016627;28;20694;-89
2024/02/13 04:38:26;;;;;;;21.83;15.10;;;4.20;94.70;;;;;;5016776;28;20273;-89
2024/02/13 04:40:52;;;;;;;21.20;14.13;;;4.20;94.70;;;;;;5016595;28;20192;-90
2024/02/13 04:43:17;;;;;;;22.90;14.90;;;4.20;94.70;;;;;;5016393;28;20204;-87
2024/02/13 04:45:43;;;;;;;19.77;14.10;;;4.20;94.70;;;;;;5034126;28;20176;-89
2024/02/13 04:48:13;;;;;;;23.17;13.40;;;4.20;94.80;;;;;;5033978;28;20607;-87
2024/02/13 04:50:38;;;;;;;19.93;15.10;;;4.20;94.80;;;;;;5016344;28;20176;-89
2024/02/13 04:53:04;;;;;;;17.13;13.23;;;4.20;94.80;;;;;;5016273;28;20177;-88
2024/02/13 04:55:34;;;;;;;26.37;15.37;;;4.20;94.80;;;;;;5016254;28;20572;-90
2024/02/13 04:58:01;;;;;;;19.33;13.97;;;4.30;94.80;;;;;;5016301;28;20204;-90
2024/02/13 05:00:29;;;;;;;25.10;14.80;;;4.20;94.80;;;;;;5033936;28;20176;-89
2024/02/13 05:03:03;;;;;;;25.00;14.87;;;4.20;94.80;;;;;;5016119;28;20207;-89
2024/02/13 05:08:14;;;;;;;29.03;16.50;;;4.20;94.80;;;;;;5033993;28;20698;-90
2024/02/13 05:10:41;;;;;;;23.33;15.57;;;4.20;94.80;;;;;;5016062;28;20179;-88
2024/02/13 05:13:07;;;;;;;24.90;15.60;;;4.10;94.80;;;;;;5016152;28;20172;-87
2024/02/13 05:15:32;;;;;;;22.80;14.63;;;4.10;94.90;;;;;;5015883;28;20187;-90
2024/02/13 05:17:58;;;;;;;23.60;16.43;;;4.00;94.90;;;;;;5015845;28;20611;-88
2024/02/13 05:20:23;;;;;;;20.23;16.40;;;4.00;94.90;;;;;;5015911;28;20180;-89
2024/02/13 05:22:49;;;;;;;27.57;16.07;;;4.00;94.90;;;;;;5033790;28;20567;-88
2024/02/13 05:25:15;;;;;;;25.87;17.33;;;4.00;94.90;;;;;;5015688;28;20547;-90
2024/02/13 05:27:41;;;;;;;22.40;14.07;;;3.90;94.90;;;;;;5015668;28;20195;-87
2024/02/13 05:30:07;;;;;;;33.17;17.57;;;4.00;95.00;;;;;;5015671;28;20175;-88
2024/02/13 05:32:33;;;;;;;26.77;17.60;;;4.10;95.00;;;;;;5015688;28;20180;-89
2024/02/13 05:34:59;;;;;;;27.13;17.63;;;4.10;95.00;;;;;;5033122;28;20197;-88
2024/02/13 05:37:25;;;;;;;36.23;18.13;;;4.00;94.90;;;;;;5015251;28;20294;-87
2024/02/13 05:39:51;;;;;;;29.70;20.70;;;4.00;94.90;;;;;;5033335;28;20217;-88
2024/02/13 05:42:18;;;;;;;32.93;25.03;;;3.90;94.90;;;;;;5015441;28;20699;-89
2024/02/13 05:44:45;;;;;;;32.80;23.87;;;3.90;94.90;;;;;;5015471;28;20644;-87
2024/02/13 05:47:11;;;;;;;26.43;23.67;;;3.80;94.90;;;;;;5015301;28;20199;-89
2024/02/13 05:49:36;;;;;;;33.57;24.33;;;3.80;95.00;;;;;;5015899;28;20629;-90
2024/02/13 05:52:02;;;;;;;30.23;23.73;;;3.80;95.00;;;;;;5033076;28;20263;-89
2024/02/13 05:54:28;;;;;;;40.10;25.67;;;3.80;95.00;;;;;;5032992;28;20204;-90
2024/02/13 05:56:54;;;;;;;31.93;24.13;;;3.70;95.00;;;;;;5015470;28;20203;-88
2024/02/13 05:59:25;;;;;;;26.13;23.33;;;3.70;95.00;;;;;;5015400;28;20195;-88
2024/02/13 06:01:52;;;;;;;33.27;26.13;;;3.80;95.10;;;;;;5015366;28;20262;-89
2024/02/13 06:04:18;;;;;;;33.93;24.97;;;3.70;95.10;;;;;;5015490;28;20228;-90
2024/02/13 06:06:46;;;;;;;40.00;23.60;;;3.70;95.10;;;;;;5015267;28;20562;-88
2024/02/13 06:09:13;;;;;;;27.80;23.27;;;3.70;95.20;;;;;;5015250;28;20638;-89
2024/02/13 06:11:38;;;;;;;35.23;23.43;;;3.70;95.10;;;;;;5032948;28;20172;-89
2024/02/13 06:14:04;;;;;;;30.53;22.93;;;3.70;95.20;;;;;;5033056;28;20258;-89
2024/02/13 06:16:30;;;;;;;32.43;24.10;;;3.70;95.20;;;;;;5015334;28;20174;-89
2024/02/13 06:18:55;;;;;;;30.20;24.57;;;3.70;95.20;;;;;;5032895;28;20235;-89
2024/02/13 06:21:21;;;;;;;34.37;25.60;;;3.80;95.20;;;;;;5015585;28;20711;-89
2024/02/13 06:23:47;;;;;;;40.33;25.33;;;3.80;95.20;;;;;;5015240;28;20177;-87
2024/02/13 06:26:13;;;;;;;26.30;21.30;;;3.70;95.10;;;;;;5015145;28;20179;-88
2024/02/13 06:28:38;;;;;;;34.30;24.10;;;3.80;95.10;;;;;;5015132;28;20327;-89
2024/02/13 06:31:04;;;;;;;28.10;25.10;;;3.80;95.10;;;;;;5015370;28;20169;-88
2024/02/13 06:33:30;;;;;;;39.17;25.40;;;3.80;95.10;;;;;;5015311;28;20208;-88
2024/02/13 06:35:56;;;;;;;37.30;26.57;;;3.80;95.00;;;;;;5016117;28;20177;-89
2024/02/13 06:38:24;;;;;;;35.17;27.83;;;3.80;94.90;;;;;;5014922;28;20203;-89
2024/02/13 06:40:52;;;;;;;38.33;28.20;;;3.80;95.00;;;;;;5015079;28;20179;-90
2024/02/13 06:43:18;;;;;;;37.13;26.77;;;3.80;94.90;;;;;;5014981;28;20205;-89
2024/02/13 06:45:44;;;;;;;41.70;29.27;;;3.80;94.90;;;;;;5018903;28;20582;-89
2024/02/13 06:48:09;;;;;;;42.27;27.57;;;3.80;94.80;;;;;;5017609;28;20228;-89
2024/02/13 06:50:35;;;;;;;41.17;26.47;;;3.80;94.80;;;;;;5018564;28;20180;-90
2024/02/13 06:53:00;;;;;;;32.57;26.30;;;3.80;94.80;;;;;;5018544;28;20194;-89
2024/02/13 06:55:26;;;;;;;34.30;25.53;;;3.80;94.80;;;;;;5018529;28;20208;-89
2024/02/13 06:57:52;;;;;;;30.83;25.40;;;3.80;94.80;;;;;;5018307;28;20287;-90
2024/02/13 07:00:19;;;;;;;37.13;25.93;;;3.80;94.80;;;;;;5036114;28;20655;-89
2024/02/13 07:02:45;;;;;;;44.53;28.13;;;3.80;94.90;;;;;;5018315;28;20204;-89
2024/02/13 07:05:11;;;;;;;41.93;28.30;;;3.80;94.90;;;;;;5018443;28;20196;-89
2024/02/13 07:07:37;;;;;;;38.87;29.37;;;3.80;94.90;;;;;;5018083;28;20198;-90
2024/02/13 07:10:04;;;;;;;42.50;28.90;;;3.90;95.00;;;;;;5018514;28;20175;-89
2024/02/13 07:12:29;;;;;;;36.43;26.27;;;3.90;95.00;;;;;;5018256;28;20678;-90
2024/02/13 07:14:55;;;;;;;37.80;26.60;;;3.90;95.00;;;;;;5018091;28;20173;-90
2024/02/13 07:17:22;;;;;;;37.70;27.50;;;4.00;95.00;;;;;;5017969;28;20290;-89
2024/02/13 07:19:47;;;;;;;41.83;30.47;;;4.00;94.90;;;;;;5018013;28;20254;-88
2024/02/13 07:22:13;;;;;;;38.80;27.00;;;4.00;94.90;;;;;;5017916;28;20218;-89
2024/02/13 07:24:39;;;;;;;;;;;4.00;94.90;;;;;;5018639;28;19911;-91
2024/02/13 07:27:05;;;;;;;;;;;4.10;94.90;;;;;;5036020;28;20361;-89
2024/02/13 07:29:31;;;;;;;;;;;4.10;94.90;;;;;;5018276;28;19923;-89
2024/02/13 07:31:57;;;;;;;;;;;4.20;94.80;;;;;;5018259;28;19909;-89
2024/02/13 07:34:23;;;;;;;;;;;4.20;94.70;;;;;;5036035;28;19909;-89
2024/02/13 07:36:48;;;;;;;;;;;4.20;94.70;;;;;;5018692;28;20387;-89
2024/02/13 07:39:14;;;;;;;;;;;4.20;94.60;;;;;;5035661;28;20347;-89
2024/02/13 07:41:41;;;;;;;;;;;4.20;94.60;;;;;;5018837;28;19909;-89
2024/02/13 07:44:07;;;;;;;;;;;4.30;94.60;;;;;;5035534;28;19912;-90
2024/02/13 07:46:32;;;;;;;;;;;4.30;94.50;;;;;;5017998;28;19905;-89
2024/02/13 07:48:58;;;;;;;;;;;4.30;94.50;;;;;;5017794;28;19905;-89
2024/02/13 07:51:23;;;;;;;;;;;4.30;94.50;;;;;;5017720;28;19905;-88
2024/02/13 07:53:49;;;;;;;;;;;4.30;94.40;;;;;;5017794;28;19911;-88
2024/02/13 07:56:14;;;;;;;38.23;27.10;;;4.30;94.40;;;;;;5017291;28;19905;-88
2024/02/13 07:58:40;;;;;;;39.83;26.87;;;4.30;94.40;;;;;;5016345;28;20279;-90
2024/02/13 08:01:09;;;;;;;42.53;30.57;;;4.30;94.30;;;;;;5035235;28;20184;-87
2024/02/13 08:03:38;;;;;;;31.83;21.70;;;4.40;94.30;;;;;;5016978;28;20558;-90
2024/02/13 08:06:04;;;;;;;48.37;29.17;;;4.40;94.10;;;;;;5017529;28;20712;-89
2024/02/13 08:08:30;;;;;;;44.33;28.93;;;4.40;94.00;;;;;;5017154;28;20278;-89
2024/02/13 08:10:56;;;;;;;40.80;28.80;;;4.50;94.00;;;;;;5017643;28;20211;-90
2024/02/13 08:13:22;;;;;;;36.33;26.37;;;4.60;93.90;;;;;;5016977;28;20176;-90
2024/02/13 08:15:47;;;;;;;32.37;22.43;;;4.60;93.80;;;;;;5017360;28;20184;-88
2024/02/13 08:18:14;;;;;;;33.67;26.20;;;4.70;93.70;;;;;;5016796;28;20238;-89
2024/02/13 08:20:40;;;;;;;36.57;25.83;;;4.70;93.50;;;;;;5016936;28;20263;-89
2024/02/13 08:23:06;;;;;;;34.13;26.30;;;4.80;93.40;;;;;;5016758;28;20200;-89
2024/02/13 08:25:31;;;;;;;36.50;27.37;;;4.80;93.20;;;;;;5016782;28;20192;-90
2024/02/13 08:27:58;;;;;;;42.87;27.47;;;4.80;93.00;;;;;;5016538;28;20730;-90
2024/02/13 08:30:24;;;;;;;36.13;24.53;;;4.80;93.00;;;;;;5016638;28;20183;-90
2024/02/13 08:32:50;;;;;;;37.27;27.00;;;4.80;92.90;;;;;;5016691;28;20239;-89
2024/02/13 08:35:18;;;;;;;34.57;27.67;;;4.80;93.00;;;;;;5016607;28;20239;-89
2024/02/13 08:37:44;;;;;;;33.30;25.73;;;4.90;92.80;;;;;;5016436;28;20231;-90
2024/02/13 08:40:13;;;;;;;36.47;24.67;;;5.00;92.80;;;;;;5034264;28;20181;-89
2024/02/13 08:42:38;;;;;;;24.37;21.73;;;5.00;92.70;;;;;;5017205;28;20291;-89
2024/02/13 08:45:04;;;;;;;29.27;24.73;;;5.10;92.40;;;;;;5016772;28;20254;-88
2024/02/13 08:47:30;;;;;;;32.00;24.63;;;5.10;92.40;;;;;;5034056;28;20192;-88
2024/02/13 08:49:56;;;;;;;28.47;19.50;;;5.10;92.30;;;;;;5016485;28;20188;-89
2024/02/13 08:52:22;;;;;;;33.67;27.03;;;5.20;92.30;;;;;;5015759;28;20656;-89
2024/02/13 08:54:47;;;;;;;30.53;24.93;;;5.20;92.20;;;;;;5016367;28;20184;-89
2024/02/13 08:57:14;;;;;;;26.40;22.83;;;5.20;91.80;;;;;;5033815;28;20180;-87
2024/02/13 08:59:40;;;;;;;38.63;26.00;;;5.20;91.90;;;;;;5033863;28;20711;-90
2024/02/13 09:02:08;;;;;;;28.97;23.03;;;5.20;91.80;;;;;;5016136;28;20207;-90
2024/02/13 09:04:35;;;;;;;22.33;20.03;;;5.20;91.70;;;;;;5033631;28;20208;-87
2024/02/13 09:07:01;;;;;;;29.20;26.13;;;5.20;91.50;;;;;;5033749;28;20246;-90
2024/02/13 09:09:27;;;;;;;31.53;25.00;;;5.30;91.60;;;;;;5016087;28;20176;-89
2024/02/13 09:11:52;;;;;;;33.17;25.83;;;5.30;91.50;;;;;;5016197;28;20268;-89
2024/02/13 09:14:18;;;;;;;32.10;25.50;;;5.30;91.40;;;;;;5016140;28;20212;-88
2024/02/13 09:16:44;;;;;;;40.00;28.00;;;5.30;91.60;;;;;;5016032;28;20180;-89
2024/02/13 09:19:09;;;;;;;36.43;28.40;;;5.30;91.60;;;;;;5033511;28;20227;-89
2024/02/13 09:21:35;;;;;;;31.87;25.70;;;5.30;91.60;;;;;;5016190;28;20181;-89
2024/02/13 09:24:01;;;;;;;34.07;25.63;;;5.40;91.70;;;;;;5015882;28;20227;-89
2024/02/13 09:26:26;;;;;;;31.40;26.00;;;5.40;91.40;;;;;;5015777;28;20181;-89
2024/02/13 09:28:52;;;;;;;33.70;26.10;;;5.50;91.20;;;;;;5015692;28;20203;-89
2024/02/13 09:31:18;;;;;;;31.77;26.20;;;5.50;91.00;;;;;;5015797;28;20173;-89
2024/02/13 09:33:45;;;;;;;32.37;26.47;;;5.50;91.10;;;;;;5015654;28;20180;-89
2024/02/13 09:36:14;;;;;;;38.57;34.47;;;5.50;91.10;;;;;;5033281;28;20173;-89
2024/02/13 09:38:41;;;;;;;;;;;5.50;91.10;;;;;;5022687;28;20148;-86
2024/02/13 09:41:07;;;;;;;;;;;5.60;91.10;;;;;;5033953;28;19928;-89
2024/02/13 09:43:33;;;;;;;;;;;5.60;90.90;;;;;;5018194;28;19913;-90
2024/02/13 09:45:58;;;;;;;;;;;5.60;90.90;;;;;;5034506;28;19944;-88
2024/02/13 09:48:24;;;;;;;;;;;5.60;90.70;;;;;;5016110;28;19905;-89
2024/02/13 09:50:50;;;;;;;;;;;5.70;90.70;;;;;;5016316;28;19905;-89
2024/02/13 09:53:15;;;;;;;;;;;5.70;90.60;;;;;;5033645;28;19956;-89
2024/02/13 09:55:41;;;;;;;;;;;5.80;90.60;;;;;;5015980;28;19935;-89
2024/02/13 09:58:06;;;;;;;;;;;5.80;90.80;;;;;;5015852;28;19950;-89
2024/02/13 10:00:32;;;;;;;;;;;5.80;90.50;;;;;;5015813;28;19905;-90
2024/02/13 10:02:59;;;;;;;;;;;5.80;90.50;;;;;;5015574;28;19912;-89
2024/02/13 10:05:24;;;;;;;;;;;5.80;90.50;;;;;;5015864;28;20357;-87
2024/02/13 10:07:50;;;;;;;;;;;5.80;90.60;;;;;;5033406;28;19988;-89
2024/02/13 10:10:15;;;;;;;;;;;5.80;90.40;;;;;;5015840;28;19905;-90
2024/02/13 10:12:50;;;;;;;;;;;5.80;90.30;;;;;;5033400;28;19932;-89
2024/02/13 10:15:16;;;;;;;;;;;5.80;90.60;;;;;;5015872;28;19905;-88
2024/02/13 10:17:43;;;;;;;36.93;33.30;;;5.80;90.30;;;;;;5033125;28;20288;-90
2024/02/13 10:20:10;;;;;;;37.77;32.10;;;5.80;90.30;;;;;;5032803;28;20189;-90
2024/02/13 10:22:46;;;;;;;38.50;34.70;;;5.80;90.40;;;;;;5016960;28;20338;-90
2024/02/13 10:25:13;;;;;;;40.33;35.97;;;5.80;90.40;;;;;;5019202;28;20193;-89
2024/02/13 10:27:40;;;;;;;38.07;33.77;;;5.80;90.60;;;;;;5036863;28;20653;-88
2024/02/13 10:30:06;;;;;;;41.03;31.53;;;5.80;90.60;;;;;;5019461;28;20180;-87
2024/02/13 10:32:38;;;;;;;36.73;30.33;;;5.80;90.80;;;;;;5053933;28;20168;-90
2024/02/13 10:35:06;;;;;;;39.27;35.43;;;5.80;90.60;;;;;;5032114;28;20173;-89
2024/02/13 10:37:31;;;;;;;48.90;34.73;;;5.80;90.60;;;;;;5025971;28;20280;-90
2024/02/13 10:40:00;;;;;;;35.37;30.40;;;5.80;90.70;;;;;;5028219;28;20203;-90
2024/02/13 10:42:37;;;;;;;31.73;28.43;;;5.80;90.80;;;;;;5024226;28;20554;-88
2024/02/13 10:45:06;;;;;;;34.77;31.10;;;5.90;91.00;;;;;;5037642;28;20157;-90
2024/02/13 10:47:34;;;;;;;37.03;29.67;;;6.00;91.00;;;;;;5018484;28;20688;-89
2024/02/13 10:50:03;;;;;;;39.10;30.73;;;6.10;91.00;;;;;;5023132;28;20172;-89
2024/02/13 10:52:32;;;;;;;36.37;30.80;;;6.10;90.90;;;;;;5036194;28;20663;-89
2024/02/13 10:55:06;;;;;;;31.77;27.97;;;6.20;91.10;;;;;;5018528;28;20227;-88
2024/02/13 10:57:33;;;;;;;36.73;27.33;;;6.20;90.90;;;;;;5018608;28;20250;-88
2024/02/13 11:00:00;;;;;;;36.10;26.77;;;6.30;90.50;;;;;;5036321;28;20169;-90
2024/02/13 11:02:28;;;;;;;34.43;29.60;;;6.30;90.40;;;;;;5036022;28;20193;-88
2024/02/13 11:04:55;;;;;;;32.03;28.47;;;6.30;90.30;;;;;;5018325;28;20204;-89
2024/02/13 11:07:21;;;;;;;31.23;27.43;;;6.40;90.40;;;;;;5018362;28;20200;-90
2024/02/13 11:09:47;;;;;;;32.93;28.60;;;6.30;90.50;;;;;;5018490;28;20180;-89
2024/02/13 11:12:13;;;;;;;32.80;29.27;;;6.40;90.50;;;;;;5018416;28;20173;-87
2024/02/13 11:14:39;;;;;;;28.40;23.50;;;6.40;90.50;;;;;;5018448;28;20173;-88
2024/02/13 11:17:09;;;;;;;34.37;28.13;;;6.40;90.30;;;;;;5018385;28;20188;-87
2024/02/13 11:19:42;;;;;;;34.23;29.50;;;6.30;89.90;;;;;;5018342;28;20603;-88
2024/02/13 11:22:08;;;;;;;32.37;28.93;;;6.30;89.90;;;;;;5018183;28;20575;-89
2024/02/13 11:25:08;;;;;;;36.27;29.57;;;6.30;90.00;;;;;;5035840;28;20165;-88
2024/02/13 11:27:36;;;;;;;39.63;28.73;;;6.40;89.80;;;;;;5017713;28;20295;-89
2024/02/13 11:30:06;;;;;;;36.73;27.60;;;6.30;89.80;;;;;;5018020;28;20181;-89
2024/02/13 11:32:39;;;;;;;31.07;27.77;;;6.30;90.20;;;;;;5018043;28;20203;-90
2024/02/13 11:35:12;;;;;;;43.50;39.03;;;6.30;90.70;;;;;;5034687;28;20172;-89
2024/02/13 11:37:41;;;;;;;39.13;35.20;;;6.20;90.80;;;;;;5017836;28;20603;-88
2024/02/13 11:40:08;;;;;;;39.37;32.10;;;6.20;91.50;;;;;;5018079;28;20176;-88
2024/02/13 11:42:34;;;;;;;34.67;29.73;;;6.10;91.60;;;;;;5017758;28;20201;-89
2024/02/13 11:45:01;;;;;;;34.07;30.43;;;6.10;91.80;;;;;;5035511;28;20660;-88
2024/02/13 11:47:28;;;;;;;36.23;31.37;;;6.10;92.00;;;;;;5017680;28;20315;-88
2024/02/13 11:49:54;;;;;;;39.63;29.23;;;6.10;92.00;;;;;;5035429;28;20171;-89
2024/02/13 11:52:22;;;;;;;37.93;31.80;;;6.10;92.20;;;;;;5035296;28;20169;-90
2024/02/13 11:54:48;;;;;;;39.37;31.03;;;6.10;92.10;;;;;;5017609;28;20180;-89
2024/02/13 11:57:15;;;;;;;39.63;35.73;;;6.10;92.10;;;;;;5017311;28;20648;-90
2024/02/13 11:59:41;;;;;;;39.87;35.00;;;6.20;92.20;;;;;;5017676;28;20723;-88
2024/02/13 12:02:15;;;;;;;46.23;33.73;;;6.20;92.20;;;;;;5017436;28;20287;-89
2024/02/13 12:04:42;;;;;;;32.73;28.97;;;6.20;92.00;;;;;;5034987;28;20682;-89
2024/02/13 12:07:13;;;;;;;29.87;26.80;;;6.20;91.60;;;;;;5017462;28;20207;-90
2024/02/13 12:09:40;;;;;;;36.37;32.63;;;6.30;91.10;;;;;;5017617;28;20176;-89
2024/02/13 12:12:09;;;;;;;41.90;34.43;;;6.30;91.20;;;;;;5017319;28;20652;-90
2024/02/13 12:14:36;;;;;;;37.30;33.80;;;6.30;91.20;;;;;;5017141;28;20234;-89
2024/02/13 12:17:14;;;;;;;36.73;32.17;;;6.30;90.90;;;;;;5026352;28;20176;-93
2024/02/13 12:19:40;;;;;;;34.17;26.63;;;6.30;91.00;;;;;;5021888;28;20632;-90
2024/02/13 12:22:10;;;;;;;35.20;27.43;;;6.40;91.00;;;;;;5020926;28;20235;-89
2024/02/13 12:24:46;;;;;;;30.30;27.07;;;6.40;91.00;;;;;;5017555;28;20222;-89
2024/02/13 12:27:14;;;;;;;32.23;28.10;;;6.40;91.20;;;;;;5034547;28;20187;-89
2024/02/13 12:29:41;;;;;;;30.70;27.43;;;6.40;91.30;;;;;;5034848;28;20165;-90
2024/02/13 12:32:16;;;;;;;34.97;28.73;;;6.40;91.20;;;;;;5016826;28;20172;-89
2024/02/13 12:34:42;;;;;;;32.83;28.30;;;6.50;91.20;;;;;;5034454;28;20628;-90
2024/02/13 12:37:09;;;;;;;30.80;27.50;;;6.50;91.10;;;;;;5034270;28;20210;-89
2024/02/13 12:39:40;;;;;;;34.90;29.00;;;6.50;90.70;;;;;;5034509;28;20256;-90
2024/02/13 12:42:10;;;;;;;32.27;28.13;;;6.50;90.80;;;;;;5017641;28;20204;-90
2024/02/13 12:44:37;;;;;;;39.60;29.83;;;6.50;90.80;;;;;;5016371;28;20626;-90